Time;durP1;ratioP1;P1;durP2;ratioP2;P2;SDS_P1;SDS_P2;PMS_P1;PMS_P2;Temp;Humidity;BMP_temperature;BMP_pressure;BME280_temperature;BME280_humidity;BME280_pressure;Samples;Min_cycle;Max_cycle;Signal;HPM_P1;HPM_P2
2021/12/04 00:02:14;;;;;;;5.30;2.22;;;;;;;3.25;97.22;99867.44;5024519;28;20053;-70
2021/12/04 00:04:44;;;;;;;6.38;2.33;;;;;;;3.24;96.85;99869.19;5028109;28;20052;-70
2021/12/04 00:07:10;;;;;;;3.90;1.90;;;;;;;3.06;96.96;99863.88;5023439;28;20400;-70
2021/12/04 00:09:37;;;;;;;12.57;3.13;;;;;;;3.07;97.82;99862.13;5011705;28;20032;-71
2021/12/04 00:12:05;;;;;;;8.70;2.97;;;;;;;3.04;97.94;99864.97;5013635;28;20064;-70
2021/12/04 00:14:34;;;;;;;7.55;3.40;;;;;;;3.06;98.12;99852.81;5027667;28;20036;-70
2021/12/04 00:17:00;;;;;;;7.80;3.25;;;;;;;3.08;98.09;99856.06;5038993;28;20120;-70
2021/12/04 00:19:26;;;;;;;7.57;3.58;;;;;;;3.13;97.01;99853.94;5036559;28;20469;-70
2021/12/04 00:21:53;;;;;;;9.65;3.38;;;;;;;3.08;97.06;99844.06;5027184;28;20033;-70
2021/12/04 00:24:18;;;;;;;7.20;3.30;;;;;;;3.00;97.00;99836.22;5022908;28;20025;-70
2021/12/04 00:26:46;;;;;;;7.18;2.83;;;;;;;2.98;97.58;99837.31;5024575;28;20447;-70
2021/12/04 00:29:12;;;;;;;8.55;3.28;;;;;;;2.96;97.98;99829.75;5030994;28;20116;-70
2021/12/04 00:31:40;;;;;;;5.85;3.10;;;;;;;2.99;97.72;99833.78;5011944;28;20511;-69
2021/12/04 00:34:06;;;;;;;4.90;3.38;;;;;;;3.03;97.93;99835.16;5039336;28;20040;-70
2021/12/04 00:36:50;;;;;;;5.07;3.53;;;;;;;2.98;97.73;99816.81;5022511;28;20038;-70
2021/12/04 00:50:26;;;;;;;5.60;3.42;;;;;;;3.01;97.56;99798.59;4997588;28;20611;-70
2021/12/04 00:52:51;;;;;;;5.65;3.65;;;;;;;3.06;97.42;99799.03;5026059;28;20061;-70
2021/12/04 00:55:17;;;;;;;4.30;2.70;;;;;;;3.08;97.12;99787.69;5030077;28;20524;-70
2021/12/04 00:57:42;;;;;;;4.07;2.70;;;;;;;3.07;97.27;99790.38;5037707;28;20086;-70
2021/12/04 01:00:09;;;;;;;6.65;3.63;;;;;;;2.99;97.72;99783.38;5028113;28;20029;-70
2021/12/04 01:02:34;;;;;;;6.70;3.38;;;;;;;3.06;97.84;99789.59;5044987;28;20430;-70
2021/12/04 01:05:00;;;;;;;4.32;2.92;;;;;;;3.00;98.11;99781.63;5039381;28;20037;-71
2021/12/04 01:07:25;;;;;;;5.10;3.33;;;;;;;3.09;97.76;99775.72;5033046;28;20033;-70
2021/12/04 01:09:52;;;;;;;3.90;2.63;;;;;;;3.07;97.68;99768.16;5042492;28;20041;-70
2021/12/04 01:12:17;;;;;;;4.43;3.30;;;;;;;3.14;97.38;99770.19;5030403;28;20051;-71
2021/12/04 01:14:43;;;;;;;5.95;2.70;;;;;;;3.12;96.82;99765.19;5028592;28;20033;-70
2021/12/04 01:17:09;;;;;;;3.95;2.40;;;;;;;3.05;97.23;99775.19;5031985;28;20227;-71
2021/12/04 01:19:36;;;;;;;4.45;3.03;;;;;;;3.06;97.53;99768.28;5032730;28;20261;-71
2021/12/04 01:22:03;;;;;;;4.53;2.85;;;;;;;3.06;97.52;99769.09;5027444;28;20166;-70
2021/12/04 01:24:28;;;;;;;4.50;2.88;;;;;;;3.09;97.32;99762.91;5031738;28;20365;-71
2021/12/04 01:26:54;;;;;;;3.78;2.50;;;;;;;3.18;97.05;99763.84;5039432;28;20035;-70
2021/12/04 01:29:20;;;;;;;3.65;2.60;;;;;;;3.05;97.31;99759.81;5015820;28;20656;-71
2021/12/04 01:31:46;;;;;;;3.78;2.70;;;;;;;3.13;97.46;99766.81;5028462;28;20044;-71
2021/12/04 01:34:13;;;;;;;4.30;2.80;;;;;;;3.09;97.33;99768.03;5032141;28;20269;-70
2021/12/04 01:36:38;;;;;;;4.30;2.92;;;;;;;3.05;98.04;99779.47;5019918;28;20037;-71
2021/12/04 01:39:05;;;;;;;5.18;3.15;;;;;;;3.02;98.03;99772.88;5031574;28;20048;-71
2021/12/04 01:41:34;;;;;;;6.78;3.72;;;;;;;3.10;97.71;99764.53;5031439;28;20022;-71
2021/12/04 01:44:02;;;;;;;6.28;3.67;;;;;;;3.14;98.20;99758.19;5034155;28;20052;-71
2021/12/04 01:46:29;;;;;;;7.25;4.28;;;;;;;3.15;97.80;99764.13;5007601;28;20072;-71
2021/12/04 01:48:55;;;;;;;8.95;4.07;;;;;;;3.24;97.44;99761.59;5031380;28;20033;-71
2021/12/04 01:51:20;;;;;;;7.07;4.55;;;;;;;3.21;97.61;99758.47;5023123;28;20047;-71
2021/12/04 01:53:47;;;;;;;12.27;4.35;;;;;;;3.17;97.54;99755.38;5036767;28;20033;-71
2021/12/04 01:56:13;;;;;;;6.55;3.92;;;;;;;3.15;97.81;99746.19;5026549;28;20042;-71
2021/12/04 01:58:42;;;;;;;8.63;3.88;;;;;;;3.15;97.92;99747.00;5032205;28;20079;-71
2021/12/04 02:01:08;;;;;;;7.40;3.20;;;;;;;3.19;97.30;99742.44;5023710;28;20524;-71
2021/12/04 02:03:34;;;;;;;8.32;4.45;;;;;;;3.13;97.61;99736.09;5031502;28;20065;-71
2021/12/04 02:06:00;;;;;;;6.63;3.15;;;;;;;3.11;97.75;99743.09;5027910;28;20064;-71
2021/12/04 02:08:25;;;;;;;4.80;2.80;;;;;;;3.15;98.04;99739.31;5031833;28;20455;-71
2021/12/04 02:10:55;;;;;;;6.60;2.88;;;;;;;3.11;97.52;99743.91;5026595;28;20041;-71
2021/12/04 02:13:21;;;;;;;4.72;2.60;;;;;;;3.07;98.06;99746.84;5003924;28;20522;-71
2021/12/04 02:15:47;;;;;;;6.22;2.60;;;;;;;3.10;98.54;99739.72;5026181;28;20068;-71
2021/12/04 02:18:14;;;;;;;4.88;2.80;;;;;;;3.19;98.00;99740.66;5025602;28;20041;-70
2021/12/04 02:20:41;;;;;;;4.43;2.65;;;;;;;3.14;97.82;99737.69;5028404;28;20117;-71
2021/12/04 02:23:08;;;;;;;4.10;2.40;;;;;;;3.18;97.94;99730.53;5032452;28;20044;-71
2021/12/04 02:25:35;;;;;;;4.95;2.67;;;;;;;3.12;97.90;99721.66;5025828;28;20033;-71
2021/12/04 02:28:02;;;;;;;3.92;2.67;;;;;;;3.04;98.22;99730.00;5024414;28;20447;-70
2021/12/04 02:30:32;;;;;;;5.43;3.20;;;;;;;3.05;98.26;99731.63;5025368;28;20029;-71
2021/12/04 02:32:58;;;;;;;4.35;2.72;;;;;;;3.05;97.91;99728.25;5027176;28;20056;-70
2021/12/04 02:35:25;;;;;;;4.72;3.50;;;;;;;3.03;98.44;99725.00;5027934;28;20357;-71
2021/12/04 02:37:52;;;;;;;7.03;3.42;;;;;;;3.06;98.34;99717.88;5023919;28;20034;-71
2021/12/04 02:40:20;;;;;;;7.78;2.97;;;;;;;3.11;98.53;99714.91;5018652;28;20514;-71
2021/12/04 02:42:46;;;;;;;4.13;2.58;;;;;;;3.04;98.31;99706.16;5025186;28;20048;-70
2021/12/04 02:45:13;;;;;;;8.75;3.05;;;;;;;3.09;98.20;99694.56;5026683;28;20041;-71
2021/12/04 02:47:38;;;;;;;5.97;3.22;;;;;;;3.11;98.83;99687.53;5017296;28;20111;-70
2021/12/04 02:50:09;;;;;;;5.15;3.35;;;;;;;3.13;98.28;99684.84;5031703;28;20030;-70
2021/12/04 02:52:36;;;;;;;8.10;2.92;;;;;;;3.02;98.46;99672.97;5026548;28;20033;-71
2021/12/04 02:55:04;;;;;;;6.63;3.05;;;;;;;3.01;98.90;99675.66;5015540;28;20037;-70
2021/12/04 02:57:30;;;;;;;5.78;3.60;;;;;;;3.13;98.54;99672.03;5025390;28;20082;-70
2021/12/04 02:59:56;;;;;;;4.78;3.13;;;;;;;3.17;98.49;99673.38;5029015;28;20552;-71
2021/12/04 03:02:23;;;;;;;5.18;3.05;;;;;;;3.09;98.43;99670.69;5028984;28;20033;-71
2021/12/04 03:04:51;;;;;;;4.45;3.05;;;;;;;3.02;98.88;99667.84;5036107;28;20581;-71
2021/12/04 03:07:18;;;;;;;4.82;3.03;;;;;;;3.03;99.00;99664.38;5029264;28;20038;-71
2021/12/04 03:09:43;;;;;;;5.78;2.80;;;;;;;3.15;98.16;99652.22;5030483;28;20025;-71
2021/12/04 03:12:12;;;;;;;4.65;2.55;;;;;;;3.11;98.68;99656.00;5025622;28;20048;-71
2021/12/04 03:14:38;;;;;;;4.72;2.15;;;;;;;3.10;98.54;99644.13;5033298;28;20044;-70
2021/12/04 03:17:05;;;;;;;4.88;2.45;;;;;;;3.12;98.31;99644.78;5009443;28;20472;-71
2021/12/04 03:19:31;;;;;;;14.20;4.45;;;;;;;3.06;98.62;99635.91;5039492;28;20052;-71
2021/12/04 03:21:56;;;;;;;5.32;2.72;;;;;;;3.06;98.61;99632.53;5029035;28;20038;-70
2021/12/04 03:24:23;;;;;;;7.47;2.70;;;;;;;3.13;98.71;99631.06;5033903;28;20098;-71
2021/12/04 03:26:50;;;;;;;3.28;2.13;;;;;;;3.11;98.24;99628.63;5024168;28;20051;-70
2021/12/04 03:29:18;;;;;;;6.50;2.13;;;;;;;3.20;98.36;99616.75;5026030;28;20033;-70
2021/12/04 03:42:26;;;;;;;5.85;2.40;;;;;;;3.11;98.66;99607.31;5031350;28;20034;-70
2021/12/04 03:44:51;;;;;;;6.10;2.20;;;;;;;3.11;99.00;99608.13;5031081;28;20032;-71
2021/12/04 03:47:19;;;;;;;5.70;2.13;;;;;;;3.10;98.45;99608.25;5038788;28;20447;-70
2021/12/04 03:49:45;;;;;;;3.70;2.50;;;;;;;3.07;98.92;99608.53;5034653;28;20017;-70
2021/12/04 03:52:11;;;;;;;4.93;2.15;;;;;;;3.12;98.95;99602.03;5032017;28;20033;-70
2021/12/04 03:54:37;;;;;;;5.25;2.20;;;;;;;3.19;98.66;99604.88;5030666;28;20053;-70
2021/12/04 03:57:04;;;;;;;3.47;2.42;;;;;;;3.10;98.73;99601.38;5036424;28;20523;-70
2021/12/04 03:59:30;;;;;;;3.58;2.10;;;;;;;3.08;98.87;99599.91;5030146;28;20045;-70
2021/12/04 04:01:56;;;;;;;4.03;2.20;;;;;;;3.08;98.75;99597.34;5030051;28;20029;-71
2021/12/04 04:04:21;;;;;;;4.78;2.65;;;;;;;3.07;98.87;99595.72;5031070;28;20083;-70
2021/12/04 04:06:47;;;;;;;6.18;2.70;;;;;;;3.14;98.89;99596.78;5030497;28;20029;-70
2021/12/04 04:09:12;;;;;;;4.95;2.78;;;;;;;3.15;98.87;99595.06;5027840;28;20033;-70
2021/12/04 04:11:38;;;;;;;6.32;3.28;;;;;;;3.12;98.73;99593.56;5039432;28;20025;-70
2021/12/04 04:14:04;;;;;;;6.18;3.30;;;;;;;3.18;98.62;99592.19;5029502;28;20465;-70
2021/12/04 04:16:30;;;;;;;8.50;4.25;;;;;;;3.07;98.84;99583.75;5032931;28;20037;-70
2021/12/04 04:18:55;;;;;;;7.18;4.00;;;;;;;3.01;98.85;99593.72;5032776;28;20057;-70
2021/12/04 04:21:21;;;;;;;6.90;4.35;;;;;;;3.04;99.52;99589.13;5028292;28;20159;-70
2021/12/04 04:23:46;;;;;;;10.32;5.30;;;;;;;3.05;98.84;99579.69;5028604;28;20087;-71
2021/12/04 04:26:12;;;;;;;9.10;5.50;;;;;;;3.11;99.30;99581.72;5033838;28;20415;-71
2021/12/04 04:28:38;;;;;;;8.00;4.80;;;;;;;3.14;98.49;99580.63;5031471;28;20029;-71
2021/12/04 04:31:03;;;;;;;8.82;5.40;;;;;;;3.15;98.53;99583.06;5032847;28;20029;-70
2021/12/04 04:33:35;;;;;;;9.13;5.25;;;;;;;3.08;98.55;99585.34;5029022;28;20037;-70
2021/12/04 04:36:33;;;;;;;9.98;6.45;;;;;;;3.18;98.44;99585.31;5027676;28;20071;-70
2021/12/04 04:39:14;;;;;;;8.52;5.38;;;;;;;3.16;98.35;99579.53;5026151;28;20249;-70
2021/12/04 05:00:49;;;;;;;11.32;6.47;;;;;;;3.03;98.24;99559.34;5030472;28;20064;-70
2021/12/04 05:11:15;;;;;;;8.32;5.93;;;;;;;3.02;98.03;99555.16;5027841;28;20076;-70
2021/12/04 05:13:41;;;;;;;8.95;5.53;;;;;;;3.06;98.35;99551.38;5021151;28;20056;-70
2021/12/04 05:16:17;;;;;;;11.68;6.28;;;;;;;3.09;98.29;99552.88;5026470;28;20099;-70
2021/12/04 05:18:53;;;;;;;10.23;6.97;;;;;;;3.08;98.16;99549.47;5034846;28;20029;-70
2021/12/04 05:21:19;;;;;;;9.95;7.05;;;;;;;3.09;98.02;99543.41;5028495;28;20484;-70
2021/12/04 05:23:53;;;;;;;9.90;6.53;;;;;;;3.14;98.20;99544.75;5026723;28;20041;-70
2021/12/04 05:26:25;;;;;;;11.43;6.55;;;;;;;3.09;98.28;99545.19;5022204;28;20029;-70
2021/12/04 05:28:52;;;;;;;10.65;6.97;;;;;;;3.08;97.97;99546.91;5021100;28;20452;-70
2021/12/04 05:31:18;;;;;;;9.10;6.03;;;;;;;3.04;98.09;99545.59;5031633;28;20150;-70
2021/12/04 05:33:44;;;;;;;10.80;6.80;;;;;;;2.96;98.73;99540.34;5029096;28;20037;-70
2021/12/04 05:36:09;;;;;;;10.45;6.50;;;;;;;2.95;98.84;99543.84;5033496;28;20045;-70
2021/12/04 05:38:35;;;;;;;15.13;7.45;;;;;;;3.03;98.90;99545.72;5029787;28;20089;-70
2021/12/04 05:41:02;;;;;;;11.40;6.97;;;;;;;3.01;98.84;99539.91;5029683;28;20373;-70
2021/12/04 05:43:28;;;;;;;10.38;6.78;;;;;;;2.98;98.70;99535.91;5038153;28;20033;-70
2021/12/04 05:46:19;;;;;;;12.85;7.95;;;;;;;3.04;98.81;99534.53;5033825;28;20048;-70
2021/12/04 05:48:48;;;;;;;12.25;8.05;;;;;;;3.01;98.24;99539.91;5028504;28;20049;-71
2021/12/04 05:51:22;;;;;;;11.63;6.85;;;;;;;3.07;98.49;99545.31;5029357;28;20033;-70
2021/12/04 05:56:14;;;;;;;12.77;8.15;;;;;;;3.02;98.60;99550.03;5019676;28;20033;-70
2021/12/04 05:58:40;;;;;;;12.70;8.48;;;;;;;2.98;98.67;99547.91;5025450;28;20518;-70
2021/12/04 06:01:06;;;;;;;15.68;8.38;;;;;;;3.02;98.67;99534.66;5023734;28;20041;-70
2021/12/04 06:03:33;;;;;;;14.00;7.25;;;;;;;2.97;98.59;99528.34;5029872;28;20102;-70
2021/12/04 06:05:59;;;;;;;12.10;8.23;;;;;;;2.93;98.68;99527.81;5025477;28;20029;-70
2021/12/04 06:08:24;;;;;;;13.85;8.18;;;;;;;2.92;99.25;99536.44;5031027;28;20367;-70
2021/12/04 06:10:51;;;;;;;13.20;7.63;;;;;;;3.15;98.54;99529.25;5026975;28;20029;-70
2021/12/04 06:13:17;;;;;;;14.70;9.07;;;;;;;3.13;98.02;99526.03;5031850;28;20403;-70
2021/12/04 06:15:43;;;;;;;16.55;8.32;;;;;;;3.09;97.65;99528.06;5024695;28;20026;-70
2021/12/04 06:18:09;;;;;;;13.70;8.73;;;;;;;3.16;97.47;99530.06;5030219;28;20500;-70
2021/12/04 06:23:19;;;;;;;14.57;8.77;;;;;;;3.04;98.02;99530.22;5028683;28;20135;-70
2021/12/04 06:25:45;;;;;;;14.52;9.07;;;;;;;3.04;98.10;99531.97;5027564;28;20104;-70
2021/12/04 06:28:11;;;;;;;15.20;9.10;;;;;;;3.06;98.04;99540.31;5026034;28;20044;-70
2021/12/04 06:30:39;;;;;;;13.00;8.77;;;;;;;3.06;98.08;99527.53;5027492;28;20115;-70
2021/12/04 06:33:07;;;;;;;14.82;8.15;;;;;;;3.11;97.93;99522.78;5029527;28;20033;-70
2021/12/04 06:35:33;;;;;;;14.77;8.68;;;;;;;3.09;97.70;99522.94;5031377;28;21718;-70
2021/12/04 06:38:00;;;;;;;13.20;8.00;;;;;;;3.04;98.38;99519.16;5026072;28;20079;-70
2021/12/04 06:40:26;;;;;;;13.30;8.23;;;;;;;3.07;98.07;99516.31;5027428;28;20043;-70
2021/12/04 06:42:54;;;;;;;19.65;9.27;;;;;;;3.09;98.18;99517.00;5029315;28;20052;-70
2021/12/04 06:45:20;;;;;;;12.82;8.63;;;;;;;3.11;97.51;99517.69;5023267;28;20112;-70
2021/12/04 06:47:54;;;;;;;11.68;7.97;;;;;;;3.11;97.71;99522.78;5025886;28;20754;-70
2021/12/04 06:50:29;;;;;;;13.23;7.85;;;;;;;3.06;97.91;99525.75;5030934;28;20033;-70
2021/12/04 06:52:58;;;;;;;13.88;8.65;;;;;;;3.03;98.00;99527.78;5028439;28;20111;-70
2021/12/04 06:55:28;;;;;;;15.45;9.80;;;;;;;3.13;97.72;99526.03;5031300;28;20029;-70
2021/12/04 06:57:54;;;;;;;16.55;10.05;;;;;;;3.06;97.74;99522.41;5029978;28;20032;-70
2021/12/04 07:00:19;;;;;;;17.83;10.57;;;;;;;2.94;98.28;99521.75;5027091;28;20514;-70
2021/12/04 07:02:45;;;;;;;16.25;10.18;;;;;;;2.93;98.73;99526.03;5038993;28;20055;-70
2021/12/04 07:05:10;;;;;;;18.10;10.02;;;;;;;3.00;98.21;99517.84;5024641;28;20154;-70
2021/12/04 07:07:36;;;;;;;15.30;8.82;;;;;;;3.01;98.04;99522.00;5032611;28;20483;-70
2021/12/04 07:10:03;;;;;;;15.05;8.45;;;;;;;2.91;98.67;99519.47;5032190;28;20031;-70
2021/12/04 07:12:28;;;;;;;17.13;9.30;;;;;;;2.96;98.79;99519.03;5038668;28;20586;-70
2021/12/04 07:14:54;;;;;;;16.42;9.65;;;;;;;3.08;98.21;99515.38;5013406;28;20048;-70
2021/12/04 07:17:19;;;;;;;15.55;9.63;;;;;;;2.96;98.07;99519.03;5030355;28;20032;-70
2021/12/04 07:19:45;;;;;;;14.48;8.93;;;;;;;3.02;97.76;99526.97;5026445;28;20037;-70
2021/12/04 07:22:11;;;;;;;13.20;8.23;;;;;;;3.00;97.93;99528.09;5025404;28;20034;-70
2021/12/04 07:24:36;;;;;;;13.25;8.10;;;;;;;3.04;97.53;99522.53;5027554;28;20071;-70
2021/12/04 07:27:02;;;;;;;12.27;7.15;;;;;;;2.96;98.13;99526.72;5030815;28;20033;-70
2021/12/04 07:29:28;;;;;;;9.90;7.07;;;;;;;2.96;98.16;99532.66;5026657;28;20052;-70
2021/12/04 07:31:53;;;;;;;13.20;8.18;;;;;;;3.02;98.19;99529.53;5030111;28;20468;-70
2021/12/04 07:34:19;;;;;;;13.05;7.30;;;;;;;3.07;97.78;99535.06;5030940;28;20045;-70
2021/12/04 07:36:45;;;;;;;10.50;6.95;;;;;;;3.10;97.56;99519.41;5029795;28;20045;-70
2021/12/04 07:39:10;;;;;;;10.98;6.88;;;;;;;3.05;97.63;99529.28;5029687;28;20041;-70
2021/12/04 07:41:42;;;;;;;10.93;7.22;;;;;;;3.09;97.87;99528.06;5023940;28;20068;-70
2021/12/04 07:44:08;;;;;;;11.93;7.18;;;;;;;3.02;97.72;99536.44;5025716;28;20121;-70
2021/12/04 07:46:35;;;;;;;12.98;7.40;;;;;;;3.02;97.86;99533.88;5026560;28;20040;-70
2021/12/04 07:49:01;;;;;;;12.50;6.80;;;;;;;3.04;97.56;99534.53;5029661;28;20037;-70
2021/12/04 07:51:27;;;;;;;11.57;7.07;;;;;;;3.03;97.53;99531.19;5025951;28;20091;-70
2021/12/04 07:53:52;;;;;;;10.93;6.38;;;;;;;3.10;97.13;99531.41;5034722;28;20040;-70
2021/12/04 07:56:18;;;;;;;12.77;6.90;;;;;;;3.08;97.64;99530.75;5026085;28;20044;-70
2021/12/04 07:58:43;;;;;;;10.50;7.47;;;;;;;3.12;97.75;99538.00;5034107;28;20021;-70
2021/12/04 08:01:10;;;;;;;11.85;7.05;;;;;;;3.16;97.52;99525.72;5024241;28;20143;-70
2021/12/04 08:03:36;;;;;;;11.48;6.63;;;;;;;3.19;97.10;99525.47;5031896;28;20361;-70
2021/12/04 08:06:02;;;;;;;9.68;6.93;;;;;;;3.22;97.29;99512.38;5025120;28;20384;-70
2021/12/04 08:08:27;;;;;;;13.38;7.25;;;;;;;3.21;97.72;99515.88;5030074;28;20162;-70
2021/12/04 08:10:53;;;;;;;9.30;6.20;;;;;;;3.11;97.42;99507.44;5022318;28;20022;-71
2021/12/04 08:13:19;;;;;;;8.48;6.03;;;;;;;3.10;98.29;99508.34;5031768;28;20049;-70
2021/12/04 08:15:44;;;;;;;12.70;6.88;;;;;;;3.17;98.67;99511.19;5028103;28;20029;-70
2021/12/04 08:18:10;;;;;;;13.65;7.78;;;;;;;3.18;98.23;99505.91;5031844;28;20417;-70
2021/12/04 08:20:36;;;;;;;10.60;6.97;;;;;;;3.18;97.93;99511.03;5010752;28;20060;-70
2021/12/04 08:23:04;;;;;;;10.43;7.30;;;;;;;3.20;97.99;99511.72;5021391;28;20502;-71
2021/12/04 08:25:31;;;;;;;10.55;6.65;;;;;;;3.29;98.28;99512.63;5026487;28;20029;-70
2021/12/04 08:27:57;;;;;;;10.93;6.82;;;;;;;3.38;97.65;99505.84;5033176;28;20466;-70
2021/12/04 08:30:25;;;;;;;10.65;6.35;;;;;;;3.29;97.64;99507.50;5028351;28;20459;-70
2021/12/04 08:32:53;;;;;;;11.82;7.57;;;;;;;3.27;97.69;99512.75;5037396;28;20110;-70
2021/12/04 08:35:23;;;;;;;15.63;7.45;;;;;;;3.34;98.04;99512.22;5032090;28;20559;-70
2021/12/04 08:37:49;;;;;;;11.48;7.95;;;;;;;3.25;98.13;99501.84;5052598;28;20040;-70
2021/12/04 08:40:15;;;;;;;12.88;8.70;;;;;;;3.25;98.50;99509.53;5033166;28;20025;-71
2021/12/04 08:42:46;;;;;;;13.25;8.75;;;;;;;3.35;98.75;99506.13;5040275;28;20095;-70
2021/12/04 08:45:15;;;;;;;23.75;11.77;;;;;;;3.33;98.40;99501.13;5012717;28;20511;-70
2021/12/04 08:47:41;;;;;;;37.75;15.73;;;;;;;3.32;98.00;99491.84;5036634;28;20033;-70
2021/12/04 08:50:12;;;;;;;50.00;18.58;;;;;;;3.38;98.11;99490.47;5029286;28;20021;-70
2021/12/04 08:52:39;;;;;;;26.40;12.70;;;;;;;3.37;97.68;99486.28;5028213;28;20033;-70
2021/12/04 08:55:05;;;;;;;26.73;11.68;;;;;;;3.43;97.90;99493.44;5025876;28;20063;-70
2021/12/04 08:57:31;;;;;;;16.48;8.43;;;;;;;3.33;97.82;99492.66;5028926;28;20047;-70
2021/12/04 08:59:58;;;;;;;12.98;7.75;;;;;;;3.34;97.90;99486.59;5028777;28;20030;-71
2021/12/04 09:02:24;;;;;;;14.77;9.45;;;;;;;3.39;97.86;99492.91;5030198;28;20029;-69
2021/12/04 09:04:50;;;;;;;11.40;7.70;;;;;;;3.43;97.58;99488.31;5028191;28;20025;-70
2021/12/04 09:07:18;;;;;;;18.88;8.20;;;;;;;3.37;97.56;99483.72;5026073;28;20608;-70
2021/12/04 09:09:45;;;;;;;10.70;6.53;;;;;;;3.43;97.78;99486.53;5029363;28;20330;-70
2021/12/04 09:12:16;;;;;;;18.85;9.60;;;;;;;3.42;97.98;99490.03;5023854;28;20069;-70
2021/12/04 09:14:43;;;;;;;20.38;10.27;;;;;;;3.49;97.92;99478.28;5034463;28;20504;-70
2021/12/04 09:17:14;;;;;;;18.52;9.00;;;;;;;3.47;98.13;99481.94;5027657;28;20542;-70
2021/12/04 09:19:40;;;;;;;18.13;10.40;;;;;;;3.57;97.42;99477.56;5026168;28;20025;-70
2021/12/04 09:22:07;;;;;;;12.07;7.18;;;;;;;3.59;97.47;99475.66;5029331;28;20403;-69
2021/12/04 09:24:40;;;;;;;13.25;7.68;;;;;;;3.65;96.88;99461.47;5029013;28;20048;-70
2021/12/04 10:02:11;;;;;;;9.75;6.20;;;;;;;3.93;94.69;99410.94;5038305;28;20029;-69
2021/12/04 10:05:09;;;;;;;9.85;5.93;;;;;;;4.03;93.97;99411.69;5037729;28;20033;-70
2021/12/04 10:21:41;;;;;;;15.52;6.88;;;;;;;4.10;93.37;99404.19;5040024;28;20037;-70
2021/12/04 10:34:36;;;;;;;10.63;6.43;;;;;;;4.14;93.94;99364.44;5028264;28;20118;-70
2021/12/04 10:37:13;;;;;;;11.30;7.10;;;;;;;4.17;93.34;99361.59;5039346;28;20064;-69
2021/12/04 10:39:39;;;;;;;10.13;6.47;;;;;;;4.31;92.59;99362.81;5025273;28;20048;-70
2021/12/04 10:42:09;;;;;;;13.40;6.85;;;;;;;4.23;92.45;99358.41;5037734;28;20047;-70
2021/12/04 10:44:41;;;;;;;14.52;6.45;;;;;;;4.25;92.93;99360.84;5034711;28;20036;-70
2021/12/04 10:47:13;;;;;;;9.27;6.20;;;;;;;4.31;92.20;99365.38;5039515;28;20387;-70
2021/12/04 10:55:24;;;;;;;10.00;6.05;;;;;;;4.21;92.46;99331.31;5031906;28;20032;-69
2021/12/04 11:42:44;;;;;;;10.48;6.15;;;;;;;4.41;90.43;99257.50;5032345;28;20040;-70
2021/12/04 11:45:25;;;;;;;13.05;6.70;;;;;;;4.44;89.90;99240.00;5029467;28;20041;-70
2021/12/04 11:47:54;;;;;;;10.90;6.38;;;;;;;4.42;90.79;99239.34;5026349;28;20557;-70
2021/12/04 11:50:28;;;;;;;10.90;7.18;;;;;;;4.52;90.22;99236.69;5023754;28;20103;-69
2021/12/04 11:53:07;;;;;;;10.55;6.60;;;;;;;4.52;90.27;99230.72;5037934;28;20033;-70
2021/12/04 11:55:36;;;;;;;13.98;8.27;;;;;;;4.54;90.50;99214.22;5027472;28;20040;-70
2021/12/04 11:58:02;;;;;;;11.77;6.78;;;;;;;4.45;90.72;99215.94;5031126;28;20031;-70
2021/12/04 12:00:33;;;;;;;13.65;7.93;;;;;;;4.53;91.06;99216.94;5025858;28;20033;-70
2021/12/04 12:03:12;;;;;;;9.95;6.22;;;;;;;4.50;91.12;99202.63;5028034;28;20128;-70
2021/12/04 12:05:51;;;;;;;8.85;5.45;;;;;;;4.67;89.79;99198.34;5026628;28;20552;-70
2021/12/04 12:08:28;;;;;;;12.65;7.20;;;;;;;4.70;89.29;99199.81;5022470;28;20065;-69
2021/12/04 12:11:01;;;;;;;11.30;6.68;;;;;;;4.67;90.60;99196.59;5026835;28;20025;-70
2021/12/04 12:13:34;;;;;;;10.13;6.63;;;;;;;4.68;90.07;99197.41;5030357;28;20061;-70
2021/12/04 12:16:08;;;;;;;7.03;5.18;;;;;;;4.74;88.98;99201.91;5028409;28;20037;-70
2021/12/04 12:18:49;;;;;;;10.52;6.22;;;;;;;4.73;88.13;99192.59;5031247;28;20029;-70
2021/12/04 12:21:18;;;;;;;7.15;4.82;;;;;;;4.75;88.07;99189.88;5027327;28;20388;-70
2021/12/04 12:32:58;;;;;;;8.48;5.03;;;;;;;4.73;88.34;99160.97;5031353;28;20075;-70
2021/12/04 12:38:17;;;;;;;7.72;4.82;;;;;;;4.69;87.52;99165.66;5032511;28;20531;-70
2021/12/04 12:40:57;;;;;;;16.42;5.32;;;;;;;4.68;87.80;99158.88;5025808;28;20026;-70
2021/12/04 12:43:23;;;;;;;6.32;4.40;;;;;;;4.71;87.97;99171.44;5031258;28;20042;-71
2021/12/04 12:45:58;;;;;;;6.68;4.63;;;;;;;4.68;88.66;99175.09;5036668;28;20086;-70
2021/12/04 12:48:24;;;;;;;7.65;5.20;;;;;;;4.54;89.87;99183.41;5030722;28;20112;-70
2021/12/04 12:50:52;;;;;;;8.25;5.63;;;;;;;4.52;90.50;99181.94;5027624;28;20028;-71
2021/12/04 12:53:27;;;;;;;9.65;5.40;;;;;;;4.54;90.51;99182.59;5037194;28;20037;-71
2021/12/04 12:56:06;;;;;;;8.77;5.25;;;;;;;4.52;91.65;99192.22;5032437;28;20036;-71
2021/12/04 12:58:42;;;;;;;20.33;10.07;;;;;;;4.44;91.76;99175.03;5036330;28;20034;-71
2021/12/04 13:12:13;;;;;;;7.05;5.43;;;;;;;4.48;93.18;99174.56;5033621;28;20034;-72
2021/12/04 13:14:42;;;;;;;8.38;5.93;;;;;;;4.49;93.63;99171.03;5037649;28;20065;-72
2021/12/04 13:17:13;;;;;;;7.85;5.25;;;;;;;4.48;94.14;99171.19;5024792;28;20049;-72
2021/12/04 13:19:44;;;;;;;7.65;5.05;;;;;;;4.46;94.88;99171.38;5039174;28;20090;-72
2021/12/04 13:22:19;;;;;;;10.52;6.20;;;;;;;4.43;95.37;99176.78;5029329;28;20045;-72
2021/12/04 13:24:47;;;;;;;8.30;5.68;;;;;;;4.43;95.66;99178.56;5041265;28;20120;-72
2021/12/04 13:29:50;;;;;;;12.93;6.55;;;;;;;4.45;95.12;99162.03;5026323;28;20096;-72
2021/12/04 13:32:32;;;;;;;9.00;6.28;;;;;;;4.44;95.38;99164.75;5031680;28;20041;-71
2021/12/04 13:35:07;;;;;;;8.07;5.75;;;;;;;4.42;95.93;99162.34;5029854;28;20049;-72
2021/12/04 13:37:33;;;;;;;19.98;9.43;;;;;;;4.46;95.78;99157.69;5026212;28;20507;-71
2021/12/04 13:40:07;;;;;;;12.85;7.50;;;;;;;4.40;95.73;99168.59;5027501;28;20071;-71
2021/12/04 13:42:34;;;;;;;10.35;6.88;;;;;;;4.41;96.18;99171.03;5026890;28;20045;-72
2021/12/04 13:45:02;;;;;;;11.35;6.78;;;;;;;4.40;96.25;99171.16;5028063;28;20431;-71
2021/12/04 13:47:28;;;;;;;10.43;7.20;;;;;;;4.38;96.23;99173.09;5023051;28;20032;-71
2021/12/04 13:49:54;;;;;;;8.52;6.30;;;;;;;4.37;96.53;99172.28;5026960;28;20369;-72
2021/12/04 13:52:23;;;;;;;9.98;6.15;;;;;;;4.37;96.83;99174.03;5028660;28;20029;-72
2021/12/04 13:54:53;;;;;;;16.75;8.70;;;;;;;4.35;96.42;99171.66;5026619;28;20040;-72
2021/12/04 13:57:19;;;;;;;23.85;12.13;;;;;;;4.37;96.94;99181.75;5024197;28;20034;-72
2021/12/04 13:59:45;;;;;;;19.83;8.73;;;;;;;4.36;97.03;99183.50;5028334;28;20028;-72
2021/12/04 14:02:24;;;;;;;10.43;7.50;;;;;;;4.38;97.46;99185.91;5027250;28;20037;-72
2021/12/04 14:04:56;;;;;;;12.98;7.10;;;;;;;4.36;97.23;99185.28;5032251;28;20131;-72
2021/12/04 14:07:22;;;;;;;13.40;7.57;;;;;;;4.34;97.53;99188.00;5034389;28;20065;-72
2021/12/04 14:09:47;;;;;;;18.70;8.30;;;;;;;4.38;97.78;99189.28;5040442;28;20068;-72
2021/12/04 14:12:13;;;;;;;16.40;7.78;;;;;;;4.38;97.97;99193.63;5037358;28;20040;-72
2021/12/04 14:14:38;;;;;;;13.90;8.70;;;;;;;4.37;97.63;99194.56;5031000;28;20029;-72
2021/12/04 14:17:10;;;;;;;14.45;8.35;;;;;;;4.35;98.11;99192.19;5027543;28;20061;-72
2021/12/04 14:19:36;;;;;;;17.17;9.00;;;;;;;4.34;97.99;99194.91;5028079;28;20167;-72
2021/12/04 14:22:08;;;;;;;17.30;9.68;;;;;;;4.35;98.62;99201.63;5035075;28;20604;-72
2021/12/04 14:24:41;;;;;;;23.35;10.70;;;;;;;4.37;98.98;99199.69;5034454;28;20144;-72
2021/12/04 14:27:09;;;;;;;16.85;9.40;;;;;;;4.35;98.73;99199.06;5023752;28;20484;-72
2021/12/04 14:29:38;;;;;;;17.63;8.20;;;;;;;4.31;99.06;99206.25;5041447;28;20033;-72
2021/12/04 14:32:05;;;;;;;17.00;9.18;;;;;;;4.29;98.77;99208.16;5033830;28;20033;-72
2021/12/04 14:34:32;;;;;;;21.80;9.40;;;;;;;4.30;98.82;99207.22;5036176;28;20041;-72
2021/12/04 14:37:12;;;;;;;17.35;9.10;;;;;;;4.28;99.25;99206.59;5036099;28;20037;-72
2021/12/04 14:39:39;;;;;;;16.60;9.00;;;;;;;4.27;99.22;99210.09;5040825;28;20029;-72
2021/12/04 14:42:14;;;;;;;18.92;9.40;;;;;;;4.25;99.17;99205.09;5028447;28;20049;-72
2021/12/04 14:44:40;;;;;;;18.85;9.70;;;;;;;4.23;99.20;99206.22;5043446;28;20045;-72
2021/12/04 14:47:07;;;;;;;18.88;9.10;;;;;;;4.27;99.55;99215.22;5028519;28;20041;-72
2021/12/04 14:49:33;;;;;;;19.85;8.45;;;;;;;4.26;99.01;99216.19;5041712;28;20473;-72
2021/12/04 14:51:59;;;;;;;17.67;7.80;;;;;;;4.23;98.85;99216.50;5035500;28;20029;-72